createdAt,value
2022-10-12T00:02:04.503Z,13.00
2022-10-12T00:04:32.227Z,13.10
2022-10-12T00:06:58.989Z,12.90
2022-10-12T00:09:25.778Z,12.90
2022-10-12T00:11:52.573Z,12.90
2022-10-12T00:14:19.373Z,12.90
2022-10-12T00:16:46.153Z,13.00
2022-10-12T00:19:14.225Z,13.00
2022-10-12T00:21:41.151Z,13.00
2022-10-12T00:24:09.207Z,12.90
2022-10-12T00:26:36.218Z,12.90
2022-10-12T00:29:04.694Z,12.80
2022-10-12T00:31:32.368Z,12.80
2022-10-12T00:34:03.761Z,12.80
2022-10-12T00:36:33.995Z,12.70
2022-10-12T00:39:02.062Z,12.60
2022-10-12T00:41:33.740Z,12.60
2022-10-12T00:44:00.826Z,12.60
2022-10-12T00:46:45.139Z,12.50
2022-10-12T00:49:21.518Z,12.50
2022-10-12T00:51:56.482Z,12.40
2022-10-12T00:54:29.215Z,12.40
2022-10-12T00:56:57.518Z,12.40
2022-10-12T00:59:31.966Z,12.30
2022-10-12T01:01:58.912Z,12.30
2022-10-12T01:04:26.116Z,12.30
2022-10-12T01:06:53.272Z,12.20
2022-10-12T01:09:21.137Z,12.20
2022-10-12T01:11:48.650Z,12.10
2022-10-12T01:14:16.752Z,12.10
2022-10-12T01:16:59.002Z,12.10
2022-10-12T01:19:47.462Z,12.00
2022-10-12T01:22:20.097Z,12.00
2022-10-12T01:25:04.824Z,12.00
2022-10-12T01:27:55.485Z,12.00
2022-10-12T01:30:23.717Z,11.90
2022-10-12T01:33:07.727Z,11.80
2022-10-12T01:35:52.173Z,11.80
2022-10-12T01:38:31.594Z,11.80
2022-10-12T01:41:24.259Z,11.80
2022-10-12T01:43:52.235Z,11.80
2022-10-12T01:46:18.919Z,11.80
2022-10-12T01:48:49.810Z,11.80
2022-10-12T01:51:26.546Z,11.90
2022-10-12T01:54:24.495Z,11.90
2022-10-12T01:57:11.619Z,11.90
2022-10-12T02:00:09.872Z,11.90
2022-10-12T02:02:53.636Z,11.90
2022-10-12T02:05:43.153Z,12.00
2022-10-12T02:08:32.313Z,12.00
2022-10-12T02:11:08.577Z,12.00
2022-10-12T02:13:45.190Z,12.10
2022-10-12T02:16:17.300Z,12.10
2022-10-12T02:18:49.084Z,12.10
2022-10-12T02:21:21.387Z,12.10
2022-10-12T02:23:51.245Z,12.10
2022-10-12T02:26:19.115Z,12.20
2022-10-12T02:28:50.386Z,12.10
2022-10-12T02:31:36.342Z,12.20
2022-10-12T02:34:13.823Z,12.20
2022-10-12T02:37:19.560Z,12.20
2022-10-12T02:39:55.696Z,12.20
2022-10-12T02:42:41.890Z,12.30
2022-10-12T02:45:19.618Z,12.30
2022-10-12T02:47:49.236Z,12.40
2022-10-12T02:50:18.245Z,12.30
2022-10-12T02:52:46.132Z,12.40
2022-10-12T02:55:12.976Z,12.40
2022-10-12T02:57:40.085Z,12.40
2022-10-12T03:00:08.013Z,12.50
2022-10-12T03:02:34.810Z,12.50
2022-10-12T03:05:01.588Z,12.50
2022-10-12T03:07:28.423Z,12.60
2022-10-12T03:09:55.186Z,12.50
2022-10-12T03:12:22.034Z,12.50
2022-10-12T03:14:48.795Z,12.60
2022-10-12T03:17:15.581Z,12.60
2022-10-12T03:19:42.385Z,12.50
2022-10-12T03:22:09.177Z,12.50
2022-10-12T03:24:35.949Z,12.50
2022-10-12T03:27:02.729Z,12.50
2022-10-12T03:29:29.533Z,12.40
2022-10-12T03:31:56.305Z,12.40
2022-10-12T03:34:23.169Z,12.40
2022-10-12T03:36:49.957Z,12.40
2022-10-12T03:39:16.734Z,12.30
2022-10-12T03:41:43.503Z,12.40
2022-10-12T03:44:10.301Z,12.50
2022-10-12T03:46:37.057Z,12.40
2022-10-12T03:49:03.852Z,12.40
2022-10-12T03:51:30.663Z,12.40
2022-10-12T03:53:57.448Z,12.40
2022-10-12T03:56:24.327Z,12.50
2022-10-12T03:58:51.188Z,12.50
2022-10-12T04:01:17.994Z,12.50
2022-10-12T04:03:45.093Z,12.40
2022-10-12T04:06:11.876Z,12.40
2022-10-12T04:08:40.212Z,12.40
2022-10-12T04:11:07.303Z,12.50
2022-10-12T04:13:34.151Z,12.50
2022-10-12T04:16:06.081Z,12.60
2022-10-12T04:18:33.946Z,12.60
2022-10-12T04:21:01.608Z,12.60
2022-10-12T04:23:28.522Z,12.60
2022-10-12T04:25:55.324Z,12.70
2022-10-12T04:28:22.139Z,12.70
2022-10-12T04:30:48.934Z,12.70
2022-10-12T04:33:15.806Z,12.70
2022-10-12T04:35:42.842Z,12.70
2022-10-12T04:38:09.679Z,12.60
2022-10-12T04:40:36.446Z,12.60
2022-10-12T04:43:03.244Z,12.60
2022-10-12T04:45:30.061Z,12.60
2022-10-12T04:47:56.850Z,12.60
2022-10-12T04:50:27.605Z,12.70
2022-10-12T04:52:56.851Z,12.70
2022-10-12T04:55:23.649Z,12.80
2022-10-12T04:57:50.492Z,12.90
2022-10-12T05:00:17.693Z,12.80
2022-10-12T05:02:44.490Z,12.80
2022-10-12T05:05:11.275Z,12.80
2022-10-12T05:07:38.259Z,12.70
2022-10-12T05:10:05.765Z,12.70
2022-10-12T05:12:32.615Z,12.60
2022-10-12T05:14:59.416Z,12.60
2022-10-12T05:17:26.219Z,12.60
2022-10-12T05:19:53.142Z,12.60
2022-10-12T05:22:19.941Z,12.70
2022-10-12T05:24:51.306Z,12.60
2022-10-12T05:27:21.003Z,12.70
2022-10-12T05:29:47.989Z,12.70
2022-10-12T05:32:15.443Z,12.70
2022-10-12T05:34:42.338Z,12.80
2022-10-12T05:37:09.261Z,12.70
2022-10-12T05:39:37.229Z,12.70
2022-10-12T05:42:05.049Z,12.70
2022-10-12T05:44:31.861Z,12.70
2022-10-12T05:46:58.682Z,12.70
2022-10-12T05:49:25.817Z,12.70
2022-10-12T05:51:52.590Z,12.60
2022-10-12T05:54:19.379Z,12.60
2022-10-12T05:56:46.145Z,12.60
2022-10-12T05:59:13.094Z,12.60
2022-10-12T06:01:39.970Z,12.60
2022-10-12T06:04:07.068Z,12.60
2022-10-12T06:06:33.858Z,12.70
2022-10-12T06:09:00.622Z,12.70
2022-10-12T06:11:28.632Z,12.70
2022-10-12T06:13:57.267Z,12.70
2022-10-12T06:16:24.231Z,12.60
2022-10-12T06:18:51.034Z,12.60
2022-10-12T06:21:34.498Z,12.60
2022-10-12T06:24:02.162Z,12.60
2022-10-12T06:26:29.056Z,12.60
2022-10-12T06:28:55.956Z,12.70
2022-10-12T06:31:22.887Z,12.60
2022-10-12T06:33:52.426Z,12.60
2022-10-12T06:36:20.370Z,12.60
2022-10-12T06:38:47.159Z,12.60
2022-10-12T06:41:13.975Z,12.70
2022-10-12T06:43:40.768Z,12.70
2022-10-12T06:46:07.543Z,12.80
2022-10-12T06:48:34.332Z,12.80
2022-10-12T06:51:01.251Z,12.90
2022-10-12T06:53:30.983Z,12.90
2022-10-12T06:55:57.759Z,13.00
2022-10-12T06:58:24.873Z,13.00
2022-10-12T07:00:52.417Z,13.00
2022-10-12T07:03:20.244Z,12.90
2022-10-12T07:05:47.034Z,12.90
2022-10-12T07:08:13.960Z,12.80
2022-10-12T07:10:40.783Z,12.90
2022-10-12T07:13:07.599Z,12.90
2022-10-12T07:15:34.361Z,12.90
2022-10-12T07:18:01.171Z,13.00
2022-10-12T07:20:27.980Z,13.00
2022-10-12T07:22:54.771Z,13.00
2022-10-12T07:25:22.316Z,12.90
2022-10-12T07:27:49.578Z,12.90
2022-10-12T07:30:16.563Z,12.90
2022-10-12T07:32:44.502Z,12.90
2022-10-12T07:35:11.327Z,12.90
2022-10-12T07:37:38.363Z,13.00
2022-10-12T07:40:06.369Z,13.00
2022-10-12T07:42:33.157Z,13.10
2022-10-12T07:44:59.957Z,13.10
2022-10-12T07:47:26.749Z,13.20
2022-10-12T07:49:53.571Z,13.20
2022-10-12T07:52:20.386Z,13.20
2022-10-12T07:54:47.175Z,13.20
2022-10-12T07:57:14.067Z,13.40
2022-10-12T07:59:40.907Z,13.40
2022-10-12T08:02:09.002Z,13.50
2022-10-12T08:04:35.810Z,13.50
2022-10-12T08:07:02.592Z,13.40
2022-10-12T08:09:29.361Z,13.50
2022-10-12T08:11:56.427Z,13.40
2022-10-12T08:14:23.378Z,13.40
2022-10-12T08:16:50.151Z,13.50
2022-10-12T08:19:16.971Z,13.30
2022-10-12T08:21:43.837Z,13.20
2022-10-12T08:24:11.860Z,13.10
2022-10-12T08:26:39.491Z,13.10
2022-10-12T08:29:08.149Z,13.20
2022-10-12T08:31:35.229Z,13.30
2022-10-12T08:34:02.236Z,13.40
2022-10-12T08:36:29.023Z,13.50
2022-10-12T08:38:55.840Z,13.50
2022-10-12T08:41:37.579Z,13.50
2022-10-12T08:44:44.494Z,13.40
2022-10-12T08:47:48.906Z,13.50
2022-10-12T08:50:31.889Z,13.60
2022-10-12T08:53:06.785Z,13.50
2022-10-12T08:55:43.805Z,13.50
2022-10-12T08:58:16.875Z,13.40
2022-10-12T09:00:57.454Z,13.40
2022-10-12T09:03:51.885Z,13.60
2022-10-12T09:06:30.664Z,13.60
2022-10-12T09:09:25.421Z,13.80
2022-10-12T09:12:05.638Z,13.80
2022-10-12T09:14:39.261Z,13.90
2022-10-12T09:17:25.950Z,13.50
2022-10-12T09:20:06.820Z,13.50
2022-10-12T09:22:35.290Z,13.60
2022-10-12T09:25:03.404Z,13.50
2022-10-12T09:27:31.884Z,13.50
2022-10-12T09:30:03.733Z,13.40
2022-10-12T09:33:06.046Z,13.40
2022-10-12T09:35:34.023Z,13.50
2022-10-12T09:38:02.202Z,13.60
2022-10-12T09:40:32.736Z,13.80
2022-10-12T09:43:02.518Z,13.90
2022-10-12T09:45:33.473Z,14.00
2022-10-12T09:48:13.949Z,13.90
2022-10-12T09:51:03.697Z,14.00
2022-10-12T09:53:42.491Z,14.00
2022-10-12T09:56:24.180Z,14.00
2022-10-12T09:59:01.323Z,13.90
2022-10-12T10:01:36.124Z,13.90
2022-10-12T10:04:24.117Z,13.90
2022-10-12T10:06:51.074Z,13.90
2022-10-12T10:09:32.130Z,14.00
2022-10-12T10:12:12.761Z,14.10
2022-10-12T10:14:43.753Z,14.00
2022-10-12T10:17:16.076Z,14.10
2022-10-12T10:19:53.049Z,14.30
2022-10-12T10:22:21.016Z,14.30
2022-10-12T10:25:00.128Z,14.30
2022-10-12T10:27:38.639Z,14.50
2022-10-12T10:30:32.484Z,14.40
2022-10-12T10:33:19.097Z,14.00
2022-10-12T10:36:05.480Z,14.20
2022-10-12T10:38:51.434Z,14.30
2022-10-12T10:41:18.412Z,14.40
2022-10-12T10:43:49.272Z,14.00
2022-10-12T10:46:25.551Z,13.90
2022-10-12T10:49:06.153Z,14.10
2022-10-12T10:51:46.490Z,14.20
2022-10-12T10:54:23.686Z,14.30
2022-10-12T10:57:18.285Z,14.40
2022-10-12T10:59:51.587Z,14.50
2022-10-12T11:02:28.880Z,14.50
2022-10-12T11:05:13.379Z,14.50
2022-10-12T11:07:49.223Z,14.60
2022-10-12T11:11:01.258Z,14.70
2022-10-12T11:14:00.558Z,14.80
2022-10-12T11:16:54.131Z,14.90
2022-10-12T11:19:44.742Z,15.10
2022-10-12T11:22:20.294Z,15.30
2022-10-12T11:25:18.366Z,15.40
2022-10-12T11:27:48.068Z,15.40
2022-10-12T11:30:24.579Z,15.30
2022-10-12T11:33:05.958Z,15.40
2022-10-12T11:35:37.357Z,15.40
2022-10-12T11:38:30.024Z,15.30
2022-10-12T11:41:31.037Z,15.40
2022-10-12T11:44:13.724Z,15.60
2022-10-12T11:47:03.644Z,15.50
2022-10-12T11:50:39.195Z,15.30
2022-10-12T11:53:22.645Z,15.40
2022-10-12T11:56:11.617Z,15.40
2022-10-12T11:59:00.017Z,15.40
2022-10-12T12:01:47.433Z,15.40
2022-10-12T12:04:42.367Z,15.50
2022-10-12T12:07:48.602Z,15.50
2022-10-12T12:10:37.028Z,15.60
2022-10-12T12:13:13.055Z,15.60
2022-10-12T12:15:43.034Z,15.60
2022-10-12T12:18:17.443Z,15.50
2022-10-12T12:20:44.180Z,15.40
2022-10-12T12:23:28.634Z,15.50
2022-10-12T12:26:15.653Z,15.50
2022-10-12T12:28:48.354Z,15.50
2022-10-12T12:31:28.072Z,15.50
2022-10-12T12:34:13.384Z,15.30
2022-10-12T12:36:46.725Z,15.40
2022-10-12T12:39:32.324Z,15.30
2022-10-12T12:42:02.884Z,15.30
2022-10-12T12:44:40.606Z,15.20
2022-10-12T12:47:26.457Z,15.10
2022-10-12T12:50:30.023Z,14.80
2022-10-12T12:53:12.748Z,14.90
2022-10-12T12:56:18.178Z,15.00
2022-10-12T12:59:09.229Z,15.20
2022-10-12T13:02:15.838Z,15.30
2022-10-12T13:05:16.640Z,15.30
2022-10-12T13:08:03.259Z,15.20
2022-10-12T13:11:04.977Z,15.10
2022-10-12T13:14:01.647Z,15.10
2022-10-12T13:17:23.494Z,15.20
2022-10-12T13:19:22.171Z,15.00
2022-10-12T13:21:52.696Z,15.00
2022-10-12T13:24:46.508Z,15.00
2022-10-12T13:27:35.598Z,15.10
2022-10-12T13:30:30.721Z,15.20
2022-10-12T13:33:42.863Z,15.10
2022-10-12T13:36:32.797Z,15.00
2022-10-12T13:39:13.047Z,14.90
2022-10-12T13:41:40.465Z,14.90
2022-10-12T13:44:08.145Z,14.90
2022-10-12T13:46:41.810Z,14.80
2022-10-12T13:49:27.626Z,14.90
2022-10-12T13:51:57.657Z,14.80
2022-10-12T13:54:32.105Z,14.80
2022-10-12T13:57:04.210Z,14.80
2022-10-12T13:59:37.325Z,14.80
2022-10-12T14:02:16.929Z,14.80
2022-10-12T14:04:44.126Z,14.70
2022-10-12T14:07:25.279Z,14.70
2022-10-12T14:09:59.867Z,14.60
2022-10-12T14:12:30.262Z,14.60
2022-10-12T14:14:58.482Z,14.70
2022-10-12T14:17:25.417Z,14.70
2022-10-12T14:19:55.339Z,14.70
2022-10-12T14:22:29.001Z,14.80
2022-10-12T14:25:07.919Z,14.80
2022-10-12T14:27:39.548Z,14.70
2022-10-12T14:30:35.146Z,14.80
2022-10-12T14:33:16.818Z,14.90
2022-10-12T14:35:49.186Z,14.90
2022-10-12T14:38:40.173Z,14.90
2022-10-12T14:41:38.422Z,15.00
2022-10-12T14:44:11.033Z,15.00
2022-10-12T14:46:47.173Z,14.90
2022-10-12T14:49:19.572Z,14.90
2022-10-12T14:51:47.294Z,14.90
2022-10-12T14:54:14.125Z,14.80
2022-10-12T14:56:40.972Z,14.80
2022-10-12T14:59:07.791Z,14.80
2022-10-12T15:01:39.241Z,14.80
2022-10-12T15:04:13.574Z,14.80
2022-10-12T15:06:40.979Z,14.80
2022-10-12T15:09:08.831Z,14.80
2022-10-12T15:11:35.621Z,14.70
2022-10-12T15:14:02.508Z,14.70
2022-10-12T15:16:29.513Z,14.70
2022-10-12T15:18:56.388Z,14.60
2022-10-12T15:21:23.155Z,14.70
2022-10-12T15:24:15.270Z,14.60
2022-10-12T15:26:42.500Z,14.70
2022-10-12T15:29:09.357Z,14.60
2022-10-12T15:31:36.157Z,14.60
2022-10-12T15:34:02.950Z,14.60
2022-10-12T15:36:29.780Z,14.60
2022-10-12T15:38:56.826Z,14.60
2022-10-12T15:41:25.513Z,14.60
2022-10-12T15:43:52.337Z,14.60
2022-10-12T15:46:19.274Z,14.50
2022-10-12T15:48:46.162Z,14.20
2022-10-12T15:51:24.736Z,14.30
2022-10-12T15:53:53.889Z,14.10
2022-10-12T15:56:22.185Z,14.10
2022-10-12T15:58:49.282Z,14.10
2022-10-12T16:01:19.609Z,14.00
2022-10-12T16:03:47.563Z,14.10
2022-10-12T16:06:14.709Z,14.10
2022-10-12T16:08:42.368Z,14.20
2022-10-12T16:11:13.403Z,14.20
2022-10-12T16:13:47.392Z,14.20
2022-10-12T16:16:17.576Z,14.20
2022-10-12T16:18:44.660Z,14.20
2022-10-12T16:21:12.011Z,14.20
2022-10-12T16:23:40.469Z,14.20
2022-10-12T16:26:12.652Z,14.20
2022-10-12T16:28:39.552Z,14.10
2022-10-12T16:31:15.100Z,14.20
2022-10-12T16:33:42.081Z,14.10
2022-10-12T16:36:11.514Z,14.10
2022-10-12T16:38:38.317Z,14.10
2022-10-12T16:41:16.433Z,14.00
2022-10-12T16:43:43.820Z,14.00
2022-10-12T16:46:11.068Z,14.00
2022-10-12T16:48:38.361Z,14.00
2022-10-12T16:51:10.388Z,13.90
2022-10-12T16:53:37.523Z,13.90
2022-10-12T16:56:04.908Z,13.90
2022-10-12T16:58:31.856Z,13.90
2022-10-12T17:00:58.689Z,13.80
2022-10-12T17:03:25.687Z,13.90
2022-10-12T17:06:01.490Z,13.90
2022-10-12T17:08:40.007Z,13.90
2022-10-12T17:11:13.557Z,13.80
2022-10-12T17:13:45.219Z,13.90
2022-10-12T17:16:33.509Z,13.80
2022-10-12T17:19:02.454Z,13.90
2022-10-12T17:21:29.520Z,13.90
2022-10-12T17:23:58.849Z,13.90
2022-10-12T17:26:26.102Z,13.90
2022-10-12T17:28:53.457Z,13.90
2022-10-12T17:31:20.463Z,13.90
2022-10-12T17:33:47.519Z,13.90
2022-10-12T17:36:14.353Z,13.80
2022-10-12T17:38:41.274Z,13.70
2022-10-12T17:41:08.121Z,13.70
2022-10-12T17:43:34.980Z,13.70
2022-10-12T17:46:04.927Z,13.70
2022-10-12T17:48:31.707Z,13.60
2022-10-12T17:51:09.607Z,13.50
2022-10-12T17:53:37.174Z,13.50
2022-10-12T17:56:06.474Z,13.40
2022-10-12T17:58:34.380Z,13.40
2022-10-12T18:01:06.473Z,13.20
2022-10-12T18:03:33.472Z,13.10
2022-10-12T18:06:06.092Z,13.00
2022-10-12T18:08:33.255Z,12.90
2022-10-12T18:11:01.951Z,12.90
2022-10-12T18:13:30.157Z,12.70
2022-10-12T18:15:57.300Z,12.70
2022-10-12T18:18:24.570Z,12.70
2022-10-12T18:20:51.750Z,12.40
2022-10-12T18:23:18.974Z,12.40
2022-10-12T18:25:47.303Z,12.30
2022-10-12T18:28:14.566Z,12.30
2022-10-12T18:30:50.292Z,12.30
2022-10-12T18:33:17.548Z,12.30
2022-10-12T18:35:44.330Z,12.20
2022-10-12T18:38:11.202Z,12.20
2022-10-12T18:40:42.058Z,12.10
2022-10-12T18:43:09.921Z,12.00
2022-10-12T18:45:43.338Z,11.90
2022-10-12T18:48:13.573Z,11.90
2022-10-12T18:50:40.579Z,11.80
2022-10-12T18:53:07.509Z,11.90
2022-10-12T18:55:38.365Z,11.90
2022-10-12T18:58:05.687Z,12.00
2022-10-12T19:00:32.835Z,12.00
2022-10-12T19:02:59.643Z,11.80
2022-10-12T19:05:26.442Z,11.80
2022-10-12T19:07:53.252Z,11.70
2022-10-12T19:10:20.149Z,11.80
2022-10-12T19:12:46.909Z,11.80
2022-10-12T19:15:13.684Z,11.90
2022-10-12T19:17:40.490Z,11.90
2022-10-12T19:20:08.388Z,11.90
2022-10-12T19:22:35.721Z,11.80
2022-10-12T19:25:02.566Z,11.70
2022-10-12T19:27:29.377Z,11.70
2022-10-12T19:29:56.511Z,11.80
2022-10-12T19:32:23.337Z,11.70
2022-10-12T19:34:52.997Z,11.90
2022-10-12T19:37:19.834Z,11.90
2022-10-12T19:39:47.754Z,12.00
2022-10-12T19:42:14.551Z,12.00
2022-10-12T19:44:41.557Z,12.00
2022-10-12T19:47:08.350Z,11.90
2022-10-12T19:49:37.394Z,11.80
2022-10-12T19:52:06.024Z,11.90
2022-10-12T19:54:36.024Z,11.80
2022-10-12T19:57:03.753Z,11.80
2022-10-12T19:59:30.575Z,11.80
2022-10-12T20:01:57.366Z,11.80
2022-10-12T20:04:24.248Z,11.70
2022-10-12T20:06:51.597Z,11.70
2022-10-12T20:09:18.541Z,11.70
2022-10-12T20:11:45.324Z,11.60
2022-10-12T20:14:12.249Z,11.60
2022-10-12T20:16:39.077Z,11.60
2022-10-12T20:19:07.207Z,11.60
2022-10-12T20:21:36.319Z,11.60
2022-10-12T20:24:03.291Z,11.50
2022-10-12T20:26:30.124Z,11.50
2022-10-12T20:28:56.942Z,11.50
2022-10-12T20:31:24.626Z,11.40
2022-10-12T20:33:52.896Z,11.50
2022-10-12T20:36:27.030Z,11.30
2022-10-12T20:38:54.042Z,11.30
2022-10-12T20:41:21.876Z,11.30
2022-10-12T20:43:48.789Z,11.30
2022-10-12T20:46:17.860Z,11.10
2022-10-12T20:48:45.673Z,11.20
2022-10-12T20:51:21.717Z,11.10
2022-10-12T20:53:50.690Z,10.90
2022-10-12T20:56:17.568Z,10.80
2022-10-12T20:58:44.458Z,10.70
2022-10-12T21:01:14.587Z,10.60
2022-10-12T21:03:42.365Z,10.60
2022-10-12T21:06:12.861Z,10.60
2022-10-12T21:08:40.244Z,10.50
2022-10-12T21:11:07.636Z,10.50
2022-10-12T21:13:44.531Z,10.50
2022-10-12T21:16:12.622Z,10.50
2022-10-12T21:18:40.789Z,10.50
2022-10-12T21:21:16.040Z,10.50
2022-10-12T21:23:45.925Z,10.40
2022-10-12T21:26:15.890Z,10.40
2022-10-12T21:28:43.188Z,10.40
2022-10-12T21:31:10.961Z,10.40
2022-10-12T21:33:38.911Z,10.30
2022-10-12T21:36:07.582Z,10.30
2022-10-12T21:38:34.631Z,10.20
2022-10-12T21:41:01.565Z,10.10
2022-10-12T21:43:28.428Z,9.90
2022-10-12T21:45:55.285Z,9.80
2022-10-12T21:48:22.080Z,9.70
2022-10-12T21:50:48.855Z,9.60
2022-10-12T21:53:15.625Z,9.40
2022-10-12T21:55:42.433Z,9.30
2022-10-12T21:58:09.225Z,9.20
2022-10-12T22:00:36.029Z,9.20
2022-10-12T22:03:02.904Z,9.00
2022-10-12T22:05:29.670Z,8.90
2022-10-12T22:07:56.448Z,8.90
2022-10-12T22:10:23.288Z,8.80
2022-10-12T22:12:50.059Z,8.70
2022-10-12T22:15:16.927Z,8.60
2022-10-12T22:17:43.740Z,8.50
2022-10-12T22:20:11.199Z,8.40
2022-10-12T22:22:37.957Z,8.40
2022-10-12T22:25:05.147Z,8.40
2022-10-12T22:27:32.067Z,8.30
2022-10-12T22:30:00.382Z,8.30
2022-10-12T22:32:27.811Z,8.40
2022-10-12T22:34:54.649Z,8.40
2022-10-12T22:37:22.437Z,8.30
2022-10-12T22:39:49.222Z,8.40
2022-10-12T22:42:16.600Z,8.50
2022-10-12T22:44:43.637Z,8.50
2022-10-12T22:47:10.568Z,8.60
2022-10-12T22:49:37.330Z,8.70
2022-10-12T22:52:04.275Z,8.70
2022-10-12T22:54:31.031Z,8.70
2022-10-12T22:56:57.841Z,8.60
2022-10-12T22:59:24.616Z,8.40
2022-10-12T23:01:51.394Z,8.40
2022-10-12T23:04:18.209Z,8.30
2022-10-12T23:06:45.017Z,8.20
2022-10-12T23:09:11.812Z,8.10
2022-10-12T23:11:38.602Z,8.00
2022-10-12T23:14:05.493Z,7.90
2022-10-12T23:16:32.859Z,7.90
2022-10-12T23:19:03.320Z,7.80
2022-10-12T23:21:33.039Z,7.80
2022-10-12T23:24:02.035Z,7.80
2022-10-12T23:26:29.618Z,7.80
2022-10-12T23:28:56.768Z,7.80
2022-10-12T23:31:27.614Z,7.80
2022-10-12T23:33:56.666Z,7.80
2022-10-12T23:36:23.645Z,7.70
2022-10-12T23:38:50.667Z,7.70
2022-10-12T23:41:17.577Z,7.60
2022-10-12T23:43:44.414Z,7.70
2022-10-12T23:46:12.476Z,7.50
2022-10-12T23:48:40.233Z,7.30
2022-10-12T23:51:11.085Z,7.20
2022-10-12T23:53:38.735Z,7.10
2022-10-12T23:56:06.841Z,7.00
2022-10-12T23:58:34.567Z,7.00
